sensor_id;sensor_type;location;lat;lon;timestamp;pressure;altitude;pressure_sealevel;temperature;humidity
36630;BME280;36256;42.154;23.002;2022-11-03T00:01:42;97757.44;;;9.43;90.17
36630;BME280;36256;42.154;23.002;2022-11-03T00:04:14;97746.84;;;9.50;89.26
36630;BME280;36256;42.154;23.002;2022-11-03T00:06:42;97751.06;;;9.59;89.74
36630;BME280;36256;42.154;23.002;2022-11-03T00:09:11;97748.78;;;9.70;88.46
36630;BME280;36256;42.154;23.002;2022-11-03T00:11:39;97760.88;;;9.83;86.97
36630;BME280;36256;42.154;23.002;2022-11-03T00:14:06;97752.66;;;9.92;85.43
36630;BME280;36256;42.154;23.002;2022-11-03T00:16:35;97753.50;;;9.89;85.85
36630;BME280;36256;42.154;23.002;2022-11-03T00:19:01;97762.97;;;9.95;88.10
36630;BME280;36256;42.154;23.002;2022-11-03T00:21:28;97766.06;;;10.00;86.57
36630;BME280;36256;42.154;23.002;2022-11-03T00:23:55;97752.72;;;10.04;85.84
36630;BME280;36256;42.154;23.002;2022-11-03T00:26:27;97756.50;;;10.14;86.16
36630;BME280;36256;42.154;23.002;2022-11-03T00:28:55;97751.34;;;10.12;84.84
36630;BME280;36256;42.154;23.002;2022-11-03T00:31:27;97745.63;;;10.00;85.64
36630;BME280;36256;42.154;23.002;2022-11-03T00:33:54;97754.91;;;9.97;88.85
36630;BME280;36256;42.154;23.002;2022-11-03T00:36:29;97749.31;;;9.97;86.73
36630;BME280;36256;42.154;23.002;2022-11-03T00:38:56;97750.34;;;9.87;85.64
36630;BME280;36256;42.154;23.002;2022-11-03T00:41:24;97742.91;;;9.64;86.54
36630;BME280;36256;42.154;23.002;2022-11-03T00:43:51;97745.97;;;9.54;87.04
36630;BME280;36256;42.154;23.002;2022-11-03T00:46:19;97750.34;;;9.55;89.17
36630;BME280;36256;42.154;23.002;2022-11-03T00:48:47;97752.13;;;9.65;89.79
36630;BME280;36256;42.154;23.002;2022-11-03T00:51:17;97750.88;;;9.66;89.25
36630;BME280;36256;42.154;23.002;2022-11-03T00:53:51;97756.50;;;9.66;87.30
36630;BME280;36256;42.154;23.002;2022-11-03T00:56:23;97761.78;;;9.80;87.91
36630;BME280;36256;42.154;23.002;2022-11-03T00:58:51;97751.25;;;9.84;86.92
36630;BME280;36256;42.154;23.002;2022-11-03T01:01:19;97755.09;;;9.90;86.34
36630;BME280;36256;42.154;23.002;2022-11-03T01:03:49;97755.44;;;9.92;86.35
36630;BME280;36256;42.154;23.002;2022-11-03T01:06:36;97754.22;;;9.93;85.81
36630;BME280;36256;42.154;23.002;2022-11-03T01:09:35;97756.16;;;9.96;86.37
36630;BME280;36256;42.154;23.002;2022-11-03T01:14:44;97753.50;;;9.89;88.88
36630;BME280;36256;42.154;23.002;2022-11-03T01:17:26;97753.16;;;9.87;90.47
36630;BME280;36256;42.154;23.002;2022-11-03T01:19:54;97760.19;;;9.79;88.82
36630;BME280;36256;42.154;23.002;2022-11-03T01:22:22;97744.06;;;9.67;89.08
36630;BME280;36256;42.154;23.002;2022-11-03T01:24:49;97742.81;;;9.68;90.62
36630;BME280;36256;42.154;23.002;2022-11-03T01:27:18;97750.97;;;9.62;91.38
36630;BME280;36256;42.154;23.002;2022-11-03T01:29:45;97743.19;;;9.54;91.57
36630;BME280;36256;42.154;23.002;2022-11-03T01:32:12;97744.38;;;9.52;90.97
36630;BME280;36256;42.154;23.002;2022-11-03T01:34:38;97747.38;;;9.62;90.40
36630;BME280;36256;42.154;23.002;2022-11-03T01:37:05;97752.53;;;9.63;90.70
36630;BME280;36256;42.154;23.002;2022-11-03T01:39:33;97756.50;;;9.66;89.82
36630;BME280;36256;42.154;23.002;2022-11-03T01:41:59;97753.16;;;9.71;88.66
36630;BME280;36256;42.154;23.002;2022-11-03T01:44:52;97753.34;;;9.80;87.08
36630;BME280;36256;42.154;23.002;2022-11-03T01:47:22;97758.63;;;9.78;89.28
36630;BME280;36256;42.154;23.002;2022-11-03T01:49:54;97759.91;;;9.73;90.27
36630;BME280;36256;42.154;23.002;2022-11-03T01:52:36;97757.81;;;9.77;90.91
36630;BME280;36256;42.154;23.002;2022-11-03T01:55:09;97744.22;;;9.76;91.85
36630;BME280;36256;42.154;23.002;2022-11-03T01:57:55;97743.03;;;9.61;92.54
36630;BME280;36256;42.154;23.002;2022-11-03T02:00:25;97755.28;;;9.67;92.25
36630;BME280;36256;42.154;23.002;2022-11-03T02:02:52;97762.44;;;9.68;93.20
36630;BME280;36256;42.154;23.002;2022-11-03T02:05:20;97764.47;;;9.67;93.65
36630;BME280;36256;42.154;23.002;2022-11-03T02:07:52;97755.97;;;9.71;92.85
36630;BME280;36256;42.154;23.002;2022-11-03T02:10:23;97757.03;;;9.77;90.64
36630;BME280;36256;42.154;23.002;2022-11-03T02:12:49;97758.63;;;9.78;90.13
36630;BME280;36256;42.154;23.002;2022-11-03T02:15:17;97757.19;;;9.70;89.25
36630;BME280;36256;42.154;23.002;2022-11-03T02:17:47;97755.09;;;9.58;88.47
36630;BME280;36256;42.154;23.002;2022-11-03T02:20:27;97764.72;;;9.57;90.74
36630;BME280;36256;42.154;23.002;2022-11-03T02:28:04;97764.34;;;9.38;91.13
36630;BME280;36256;42.154;23.002;2022-11-03T02:36:12;97760.63;;;9.25;93.08
36630;BME280;36256;42.154;23.002;2022-11-03T02:38:53;97756.09;;;9.31;93.89
36630;BME280;36256;42.154;23.002;2022-11-03T02:41:20;97754.09;;;9.32;93.06
36630;BME280;36256;42.154;23.002;2022-11-03T02:43:47;97762.84;;;9.34;93.32
36630;BME280;36256;42.154;23.002;2022-11-03T02:46:16;97756.97;;;9.28;92.69
36630;BME280;36256;42.154;23.002;2022-11-03T02:48:44;97765.47;;;9.25;92.28
36630;BME280;36256;42.154;23.002;2022-11-03T02:51:10;97770.50;;;9.14;91.58
36630;BME280;36256;42.154;23.002;2022-11-03T02:56:29;97777.25;;;8.97;91.98
36630;BME280;36256;42.154;23.002;2022-11-03T02:59:08;97766.28;;;8.86;92.98
36630;BME280;36256;42.154;23.002;2022-11-03T03:01:48;97774.59;;;8.90;92.01
36630;BME280;36256;42.154;23.002;2022-11-03T03:04:39;97774.19;;;8.91;92.85
36630;BME280;36256;42.154;23.002;2022-11-03T03:07:11;97778.06;;;8.97;92.75
36630;BME280;36256;42.154;23.002;2022-11-03T03:09:43;97776.47;;;8.96;93.37
36630;BME280;36256;42.154;23.002;2022-11-03T03:12:15;97771.22;;;8.98;92.04
36630;BME280;36256;42.154;23.002;2022-11-03T03:14:44;97775.03;;;8.88;94.42
36630;BME280;36256;42.154;23.002;2022-11-03T03:20:23;97780.50;;;8.95;94.64
36630;BME280;36256;42.154;23.002;2022-11-03T03:22:46;97777.50;;;8.86;95.39
36630;BME280;36256;42.154;23.002;2022-11-03T03:25:22;97769.75;;;8.74;96.08
36630;BME280;36256;42.154;23.002;2022-11-03T03:28:05;97771.84;;;8.70;93.74
36630;BME280;36256;42.154;23.002;2022-11-03T03:30:35;97762.13;;;8.55;92.79
36630;BME280;36256;42.154;23.002;2022-11-03T03:33:03;97766.00;;;8.61;92.15
36630;BME280;36256;42.154;23.002;2022-11-03T03:35:32;97755.19;;;8.63;91.42
36630;BME280;36256;42.154;23.002;2022-11-03T03:38:11;97769.03;;;8.70;92.12
36630;BME280;36256;42.154;23.002;2022-11-03T03:40:41;97771.03;;;8.69;92.96
36630;BME280;36256;42.154;23.002;2022-11-03T03:43:10;97770.09;;;8.76;93.56
36630;BME280;36256;42.154;23.002;2022-11-03T03:45:42;97765.72;;;8.75;93.71
36630;BME280;36256;42.154;23.002;2022-11-03T03:48:10;97763.44;;;8.70;91.26
36630;BME280;36256;42.154;23.002;2022-11-03T03:50:39;97756.09;;;8.56;92.06
36630;BME280;36256;42.154;23.002;2022-11-03T03:53:10;97769.56;;;8.42;93.03
36630;BME280;36256;42.154;23.002;2022-11-03T03:55:39;97764.25;;;8.28;94.41
36630;BME280;36256;42.154;23.002;2022-11-03T03:58:09;97769.06;;;8.27;94.86
36630;BME280;36256;42.154;23.002;2022-11-03T04:00:37;97765.69;;;8.36;93.86
36630;BME280;36256;42.154;23.002;2022-11-03T04:03:12;97764.78;;;8.42;94.02
36630;BME280;36256;42.154;23.002;2022-11-03T04:05:41;97760.88;;;8.36;92.90
36630;BME280;36256;42.154;23.002;2022-11-03T04:08:09;97768.69;;;8.45;92.23
36630;BME280;36256;42.154;23.002;2022-11-03T04:10:36;97766.47;;;8.36;90.92
36630;BME280;36256;42.154;23.002;2022-11-03T04:13:02;97772.13;;;8.33;91.28
36630;BME280;36256;42.154;23.002;2022-11-03T04:15:47;97777.09;;;8.25;90.82
36630;BME280;36256;42.154;23.002;2022-11-03T04:18:14;97778.81;;;8.16;91.94
36630;BME280;36256;42.154;23.002;2022-11-03T04:21:00;97769.25;;;8.13;93.46
36630;BME280;36256;42.154;23.002;2022-11-03T04:23:45;97771.94;;;8.20;93.51
36630;BME280;36256;42.154;23.002;2022-11-03T04:26:13;97772.38;;;8.19;93.54
36630;BME280;36256;42.154;23.002;2022-11-03T04:28:40;97774.81;;;8.17;93.36
36630;BME280;36256;42.154;23.002;2022-11-03T04:31:15;97765.19;;;8.18;93.06
36630;BME280;36256;42.154;23.002;2022-11-03T04:33:43;97773.22;;;8.16;94.52
36630;BME280;36256;42.154;23.002;2022-11-03T04:36:12;97777.25;;;8.15;95.32
36630;BME280;36256;42.154;23.002;2022-11-03T04:38:41;97782.94;;;8.08;94.86
36630;BME280;36256;42.154;23.002;2022-11-03T04:41:14;97781.69;;;7.89;95.11
36630;BME280;36256;42.154;23.002;2022-11-03T04:43:41;97781.34;;;7.83;94.98
36630;BME280;36256;42.154;23.002;2022-11-03T04:46:10;97780.78;;;7.96;94.26
36630;BME280;36256;42.154;23.002;2022-11-03T04:48:38;97782.66;;;8.02;92.15
36630;BME280;36256;42.154;23.002;2022-11-03T04:51:12;97775.91;;;8.00;91.65
36630;BME280;36256;42.154;23.002;2022-11-03T04:53:45;97783.13;;;7.97;91.84
36630;BME280;36256;42.154;23.002;2022-11-03T04:56:16;97776.38;;;7.71;91.94
36630;BME280;36256;42.154;23.002;2022-11-03T04:58:43;97790.94;;;7.59;93.71
36630;BME280;36256;42.154;23.002;2022-11-03T05:01:12;97791.84;;;7.53;96.11
36630;BME280;36256;42.154;23.002;2022-11-03T05:03:42;97795.69;;;7.62;95.76
36630;BME280;36256;42.154;23.002;2022-11-03T05:06:13;97796.41;;;7.66;95.31
36630;BME280;36256;42.154;23.002;2022-11-03T05:08:41;97794.75;;;7.69;94.43
36630;BME280;36256;42.154;23.002;2022-11-03T05:13:50;97801.47;;;7.75;93.51
36630;BME280;36256;42.154;23.002;2022-11-03T05:16:17;97797.88;;;7.74;94.58
36630;BME280;36256;42.154;23.002;2022-11-03T05:18:45;97801.84;;;7.77;95.39
36630;BME280;36256;42.154;23.002;2022-11-03T05:21:18;97801.41;;;7.78;96.63
36630;BME280;36256;42.154;23.002;2022-11-03T05:23:52;97806.91;;;7.85;96.12
36630;BME280;36256;42.154;23.002;2022-11-03T05:26:23;97803.13;;;7.96;94.58
36630;BME280;36256;42.154;23.002;2022-11-03T05:28:57;97810.16;;;8.04;94.40
36630;BME280;36256;42.154;23.002;2022-11-03T05:31:31;97820.50;;;8.07;93.56
36630;BME280;36256;42.154;23.002;2022-11-03T05:34:27;97814.16;;;8.03;96.13
36630;BME280;36256;42.154;23.002;2022-11-03T05:37:14;97812.50;;;8.09;95.61
36630;BME280;36256;42.154;23.002;2022-11-03T05:39:57;97822.38;;;8.13;94.99
36630;BME280;36256;42.154;23.002;2022-11-03T05:42:30;97827.03;;;7.97;92.87
36630;BME280;36256;42.154;23.002;2022-11-03T05:44:57;97839.19;;;7.86;92.09
36630;BME280;36256;42.154;23.002;2022-11-03T05:47:36;97845.00;;;7.72;93.63
36630;BME280;36256;42.154;23.002;2022-11-03T05:52:43;97846.56;;;7.73;93.66
36630;BME280;36256;42.154;23.002;2022-11-03T05:55:26;97851.91;;;7.91;93.25
36630;BME280;36256;42.154;23.002;2022-11-03T05:57:55;97859.75;;;8.00;91.76
36630;BME280;36256;42.154;23.002;2022-11-03T06:00:30;97858.31;;;8.15;91.43
36630;BME280;36256;42.154;23.002;2022-11-03T06:02:58;97856.81;;;8.33;90.62
36630;BME280;36256;42.154;23.002;2022-11-03T06:05:26;97853.91;;;8.40;90.76
36630;BME280;36256;42.154;23.002;2022-11-03T06:07:54;97858.59;;;8.66;89.75
36630;BME280;36256;42.154;23.002;2022-11-03T06:10:38;97866.03;;;8.96;87.74
36630;BME280;36256;42.154;23.002;2022-11-03T06:13:19;97863.25;;;9.16;86.38
36630;BME280;36256;42.154;23.002;2022-11-03T06:15:48;97868.31;;;9.21;85.81
36630;BME280;36256;42.154;23.002;2022-11-03T06:18:21;97872.81;;;9.18;87.00
36630;BME280;36256;42.154;23.002;2022-11-03T06:20:58;97870.28;;;9.04;87.99
36630;BME280;36256;42.154;23.002;2022-11-03T06:23:25;97872.09;;;9.14;88.16
36630;BME280;36256;42.154;23.002;2022-11-03T06:25:53;97873.06;;;9.43;86.77
36630;BME280;36256;42.154;23.002;2022-11-03T06:28:28;97856.50;;;9.69;85.17
36630;BME280;36256;42.154;23.002;2022-11-03T06:30:56;97857.22;;;9.89;85.90
36630;BME280;36256;42.154;23.002;2022-11-03T06:33:27;97859.53;;;10.10;85.23
36630;BME280;36256;42.154;23.002;2022-11-03T06:35:58;97866.38;;;10.41;81.89
36630;BME280;36256;42.154;23.002;2022-11-03T06:38:29;97868.47;;;10.69;80.92
36630;BME280;36256;42.154;23.002;2022-11-03T06:40:57;97861.53;;;11.02;79.90
36630;BME280;36256;42.154;23.002;2022-11-03T06:43:26;97858.16;;;11.36;77.14
36630;BME280;36256;42.154;23.002;2022-11-03T06:45:58;97871.69;;;11.54;75.88
36630;BME280;36256;42.154;23.002;2022-11-03T06:48:32;97879.31;;;11.82;75.72
36630;BME280;36256;42.154;23.002;2022-11-03T06:51:00;97873.59;;;11.98;73.41
36630;BME280;36256;42.154;23.002;2022-11-03T06:53:30;97873.25;;;12.21;72.93
36630;BME280;36256;42.154;23.002;2022-11-03T06:55:58;97874.69;;;12.38;71.54
36630;BME280;36256;42.154;23.002;2022-11-03T06:58:29;97877.13;;;12.61;70.52
36630;BME280;36256;42.154;23.002;2022-11-03T07:01:08;97877.06;;;12.87;71.06
36630;BME280;36256;42.154;23.002;2022-11-03T07:03:35;97860.91;;;13.00;68.33
36630;BME280;36256;42.154;23.002;2022-11-03T07:08:41;97867.31;;;13.13;68.08
36630;BME280;36256;42.154;23.002;2022-11-03T07:11:20;97857.47;;;13.39;66.57
36630;BME280;36256;42.154;23.002;2022-11-03T07:13:51;97846.53;;;13.41;65.69
36630;BME280;36256;42.154;23.002;2022-11-03T07:16:30;97852.78;;;13.36;66.45
36630;BME280;36256;42.154;23.002;2022-11-03T07:18:59;97841.06;;;13.68;67.53
36630;BME280;36256;42.154;23.002;2022-11-03T07:24:12;97838.09;;;14.02;64.64
36630;BME280;36256;42.154;23.002;2022-11-03T07:26:40;97842.88;;;14.24;64.71
36630;BME280;36256;42.154;23.002;2022-11-03T07:29:33;97844.88;;;14.54;64.04
36630;BME280;36256;42.154;23.002;2022-11-03T07:32:00;97830.78;;;14.63;61.66
36630;BME280;36256;42.154;23.002;2022-11-03T07:34:30;97831.72;;;14.69;61.16
36630;BME280;36256;42.154;23.002;2022-11-03T07:36:59;97835.19;;;14.73;60.85
36630;BME280;36256;42.154;23.002;2022-11-03T07:39:34;97832.03;;;14.89;61.23
36630;BME280;36256;42.154;23.002;2022-11-03T07:42:16;97827.34;;;15.49;59.42
36630;BME280;36256;42.154;23.002;2022-11-03T07:44:43;97815.44;;;15.87;56.62
36630;BME280;36256;42.154;23.002;2022-11-03T07:47:18;97816.75;;;16.10;55.87
36630;BME280;36256;42.154;23.002;2022-11-03T07:49:46;97805.41;;;16.75;54.31
36630;BME280;36256;42.154;23.002;2022-11-03T07:52:19;97805.28;;;16.93;53.63
36630;BME280;36256;42.154;23.002;2022-11-03T07:54:46;97792.56;;;17.42;51.30
36630;BME280;36256;42.154;23.002;2022-11-03T07:57:18;97781.56;;;18.42;49.07
36630;BME280;36256;42.154;23.002;2022-11-03T07:59:48;97783.66;;;19.22;47.35
36630;BME280;36256;42.154;23.002;2022-11-03T08:02:23;97780.03;;;19.99;45.19
36630;BME280;36256;42.154;23.002;2022-11-03T08:04:51;97769.59;;;19.90;44.77
36630;BME280;36256;42.154;23.002;2022-11-03T08:07:18;97776.47;;;20.09;44.33
36630;BME280;36256;42.154;23.002;2022-11-03T08:09:44;97794.50;;;20.26;43.92
36630;BME280;36256;42.154;23.002;2022-11-03T08:12:11;97789.34;;;20.73;43.77
36630;BME280;36256;42.154;23.002;2022-11-03T08:14:37;97785.50;;;20.76;43.02
36630;BME280;36256;42.154;23.002;2022-11-03T08:17:04;97785.97;;;20.69;44.00
36630;BME280;36256;42.154;23.002;2022-11-03T08:19:31;97782.66;;;20.33;43.64
36630;BME280;36256;42.154;23.002;2022-11-03T08:21:57;97788.53;;;19.93;45.87
36630;BME280;36256;42.154;23.002;2022-11-03T08:24:24;97785.19;;;19.69;45.06
36630;BME280;36256;42.154;23.002;2022-11-03T08:26:50;97784.16;;;19.98;46.09
36630;BME280;36256;42.154;23.002;2022-11-03T08:29:17;97778.38;;;21.08;44.03
36630;BME280;36256;42.154;23.002;2022-11-03T08:31:43;97781.41;;;21.80;40.97
36630;BME280;36256;42.154;23.002;2022-11-03T08:34:10;97773.97;;;21.07;41.54
36630;BME280;36256;42.154;23.002;2022-11-03T08:36:36;97772.75;;;21.30;41.57
36630;BME280;36256;42.154;23.002;2022-11-03T08:39:03;97779.28;;;22.58;39.94
36630;BME280;36256;42.154;23.002;2022-11-03T08:41:30;97775.59;;;24.24;38.02
36630;BME280;36256;42.154;23.002;2022-11-03T08:43:57;97803.50;;;25.02;34.61
36630;BME280;36256;42.154;23.002;2022-11-03T08:46:23;97802.56;;;24.93;34.55
36630;BME280;36256;42.154;23.002;2022-11-03T08:48:50;97794.56;;;25.85;33.51
36630;BME280;36256;42.154;23.002;2022-11-03T08:51:17;97808.03;;;25.16;34.67
36630;BME280;36256;42.154;23.002;2022-11-03T08:53:43;97798.41;;;26.06;32.78
36630;BME280;36256;42.154;23.002;2022-11-03T08:56:11;97803.75;;;26.92;32.74
36630;BME280;36256;42.154;23.002;2022-11-03T08:58:40;97789.28;;;26.53;31.96
36630;BME280;36256;42.154;23.002;2022-11-03T09:01:07;97791.75;;;24.51;34.08
36630;BME280;36256;42.154;23.002;2022-11-03T09:03:34;97785.09;;;24.08;35.39
36630;BME280;36256;42.154;23.002;2022-11-03T09:06:01;97773.16;;;23.98;35.08
36630;BME280;36256;42.154;23.002;2022-11-03T09:08:27;97772.94;;;23.56;36.35
36630;BME280;36256;42.154;23.002;2022-11-03T09:11:14;97777.84;;;23.14;37.54
36630;BME280;36256;42.154;23.002;2022-11-03T09:13:40;97770.50;;;22.39;38.32
36630;BME280;36256;42.154;23.002;2022-11-03T09:16:07;97768.44;;;22.01;38.53
36630;BME280;36256;42.154;23.002;2022-11-03T09:18:33;97755.66;;;21.41;40.07
36630;BME280;36256;42.154;23.002;2022-11-03T09:21:00;97763.16;;;21.28;40.28
36630;BME280;36256;42.154;23.002;2022-11-03T09:23:27;97757.31;;;21.00;40.92
36630;BME280;36256;42.154;23.002;2022-11-03T09:25:53;97752.81;;;20.77;40.93
36630;BME280;36256;42.154;23.002;2022-11-03T09:28:20;97744.25;;;20.77;42.67
36630;BME280;36256;42.154;23.002;2022-11-03T09:30:46;97742.72;;;20.81;40.78
36630;BME280;36256;42.154;23.002;2022-11-03T09:33:13;97734.91;;;20.71;41.52
36630;BME280;36256;42.154;23.002;2022-11-03T09:35:39;97727.72;;;20.86;42.85
36630;BME280;36256;42.154;23.002;2022-11-03T09:38:06;97722.97;;;20.72;40.86
36630;BME280;36256;42.154;23.002;2022-11-03T09:40:33;97722.91;;;20.56;41.34
36630;BME280;36256;42.154;23.002;2022-11-03T09:43:01;97722.97;;;20.67;41.31
36630;BME280;36256;42.154;23.002;2022-11-03T09:45:27;97709.53;;;20.84;40.68
36630;BME280;36256;42.154;23.002;2022-11-03T09:47:54;97703.06;;;20.89;41.04
36630;BME280;36256;42.154;23.002;2022-11-03T09:50:22;97698.63;;;20.82;40.46
36630;BME280;36256;42.154;23.002;2022-11-03T09:52:49;97692.44;;;20.84;42.85
36630;BME280;36256;42.154;23.002;2022-11-03T09:55:23;97689.81;;;20.80;42.22
36630;BME280;36256;42.154;23.002;2022-11-03T09:57:52;97688.78;;;20.78;41.74
36630;BME280;36256;42.154;23.002;2022-11-03T10:00:22;97691.13;;;20.85;43.19
36630;BME280;36256;42.154;23.002;2022-11-03T10:02:49;97679.28;;;21.03;41.82
36630;BME280;36256;42.154;23.002;2022-11-03T10:05:26;97680.38;;;21.22;41.73
36630;BME280;36256;42.154;23.002;2022-11-03T10:07:57;97683.47;;;21.35;40.42
36630;BME280;36256;42.154;23.002;2022-11-03T10:10:25;97665.56;;;21.46;40.30
36630;BME280;36256;42.154;23.002;2022-11-03T10:12:52;97663.53;;;21.52;42.79
36630;BME280;36256;42.154;23.002;2022-11-03T10:15:21;97664.03;;;21.61;40.90
36630;BME280;36256;42.154;23.002;2022-11-03T10:17:48;97658.56;;;21.52;40.62
36630;BME280;36256;42.154;23.002;2022-11-03T10:20:20;97653.91;;;21.60;41.31
36630;BME280;36256;42.154;23.002;2022-11-03T10:22:50;97655.47;;;21.61;40.23
36630;BME280;36256;42.154;23.002;2022-11-03T10:33:53;97624.25;;;22.08;40.17
36630;BME280;36256;42.154;23.002;2022-11-03T10:38:49;97611.22;;;22.18;39.18
36630;BME280;36256;42.154;23.002;2022-11-03T10:41:16;97604.44;;;22.32;39.57
36630;BME280;36256;42.154;23.002;2022-11-03T10:43:58;97603.09;;;22.38;39.17
36630;BME280;36256;42.154;23.002;2022-11-03T10:46:26;97596.66;;;22.27;38.86
36630;BME280;36256;42.154;23.002;2022-11-03T10:49:17;97590.69;;;22.25;38.70
36630;BME280;36256;42.154;23.002;2022-11-03T10:51:52;97590.63;;;22.30;39.34
36630;BME280;36256;42.154;23.002;2022-11-03T10:54:23;97579.16;;;22.47;41.45
36630;BME280;36256;42.154;23.002;2022-11-03T10:56:50;97581.44;;;22.54;38.81
36630;BME280;36256;42.154;23.002;2022-11-03T10:59:20;97573.38;;;22.63;38.25
36630;BME280;36256;42.154;23.002;2022-11-03T11:01:47;97557.72;;;22.70;38.28
36630;BME280;36256;42.154;23.002;2022-11-03T11:04:18;97559.50;;;22.73;37.90
36630;BME280;36256;42.154;23.002;2022-11-03T11:06:45;97560.22;;;22.85;39.54
36630;BME280;36256;42.154;23.002;2022-11-03T11:09:21;97553.16;;;22.91;37.64
36630;BME280;36256;42.154;23.002;2022-11-03T11:12:05;97550.78;;;22.95;38.32
36630;BME280;36256;42.154;23.002;2022-11-03T11:14:37;97547.50;;;22.80;39.08
36630;BME280;36256;42.154;23.002;2022-11-03T11:17:05;97540.72;;;22.83;38.89
36630;BME280;36256;42.154;23.002;2022-11-03T11:22:48;97525.47;;;23.05;38.36
36630;BME280;36256;42.154;23.002;2022-11-03T11:25:16;97529.50;;;23.20;37.65
36630;BME280;36256;42.154;23.002;2022-11-03T11:32:49;97515.81;;;23.08;37.51
36630;BME280;36256;42.154;23.002;2022-11-03T11:41:03;97505.53;;;23.53;37.91
36630;BME280;36256;42.154;23.002;2022-11-03T11:43:30;97497.63;;;23.59;37.37
36630;BME280;36256;42.154;23.002;2022-11-03T11:49:01;97489.00;;;23.65;36.36
36630;BME280;36256;42.154;23.002;2022-11-03T11:51:41;97484.69;;;23.77;36.82
36630;BME280;36256;42.154;23.002;2022-11-03T11:54:14;97479.38;;;23.62;36.20
36630;BME280;36256;42.154;23.002;2022-11-03T11:56:45;97469.19;;;23.67;36.53
36630;BME280;36256;42.154;23.002;2022-11-03T11:59:21;97471.16;;;23.77;35.92
36630;BME280;36256;42.154;23.002;2022-11-03T12:01:53;97463.91;;;23.95;35.61
36630;BME280;36256;42.154;23.002;2022-11-03T12:04:26;97466.75;;;23.95;35.34
36630;BME280;36256;42.154;23.002;2022-11-03T12:06:54;97454.88;;;23.85;35.64
36630;BME280;36256;42.154;23.002;2022-11-03T12:09:24;97454.06;;;23.90;35.76
36630;BME280;36256;42.154;23.002;2022-11-03T12:11:54;97452.59;;;24.02;37.37
36630;BME280;36256;42.154;23.002;2022-11-03T12:14:25;97442.00;;;24.16;35.58
36630;BME280;36256;42.154;23.002;2022-11-03T12:19:50;97443.88;;;24.32;38.52
36630;BME280;36256;42.154;23.002;2022-11-03T12:24:54;97431.56;;;24.50;36.64
36630;BME280;36256;42.154;23.002;2022-11-03T12:29:58;97425.28;;;24.20;35.89
36630;BME280;36256;42.154;23.002;2022-11-03T12:32:26;97426.81;;;24.21;34.96
36630;BME280;36256;42.154;23.002;2022-11-03T12:35:05;97427.72;;;24.29;37.20
36630;BME280;36256;42.154;23.002;2022-11-03T12:37:33;97422.44;;;24.33;37.08
36630;BME280;36256;42.154;23.002;2022-11-03T12:40:00;97424.47;;;24.38;37.30
36630;BME280;36256;42.154;23.002;2022-11-03T12:42:26;97415.78;;;24.44;35.16
36630;BME280;36256;42.154;23.002;2022-11-03T12:44:53;97411.72;;;24.52;37.71
36630;BME280;36256;42.154;23.002;2022-11-03T12:47:20;97418.94;;;24.59;38.13
36630;BME280;36256;42.154;23.002;2022-11-03T12:49:47;97417.91;;;24.56;36.07
36630;BME280;36256;42.154;23.002;2022-11-03T12:52:13;97406.03;;;24.34;35.18
36630;BME280;36256;42.154;23.002;2022-11-03T12:54:40;97397.53;;;24.09;35.41
36630;BME280;36256;42.154;23.002;2022-11-03T12:57:07;97400.53;;;23.98;35.74
36630;BME280;36256;42.154;23.002;2022-11-03T12:59:34;97397.66;;;23.80;35.70
36630;BME280;36256;42.154;23.002;2022-11-03T13:02:00;97404.00;;;23.73;37.37
36630;BME280;36256;42.154;23.002;2022-11-03T13:04:27;97396.22;;;23.68;37.12
36630;BME280;36256;42.154;23.002;2022-11-03T13:06:54;97394.50;;;23.59;36.90
36630;BME280;36256;42.154;23.002;2022-11-03T13:09:20;97386.78;;;23.54;36.42
36630;BME280;36256;42.154;23.002;2022-11-03T13:11:47;97379.19;;;23.57;36.92
36630;BME280;36256;42.154;23.002;2022-11-03T13:14:32;97390.19;;;23.53;36.97
36630;BME280;36256;42.154;23.002;2022-11-03T13:16:58;97385.22;;;23.53;36.70
36630;BME280;36256;42.154;23.002;2022-11-03T13:19:25;97383.69;;;23.52;36.95
36630;BME280;36256;42.154;23.002;2022-11-03T13:21:51;97383.44;;;23.50;37.21
36630;BME280;36256;42.154;23.002;2022-11-03T13:24:18;97384.19;;;23.51;36.86
36630;BME280;36256;42.154;23.002;2022-11-03T13:26:45;97387.38;;;23.47;36.78
36630;BME280;36256;42.154;23.002;2022-11-03T13:29:12;97386.59;;;23.47;37.11
36630;BME280;36256;42.154;23.002;2022-11-03T13:31:38;97379.94;;;23.38;36.70
36630;BME280;36256;42.154;23.002;2022-11-03T13:34:05;97378.09;;;23.41;37.49
36630;BME280;36256;42.154;23.002;2022-11-03T13:36:31;97381.97;;;23.44;37.17
36630;BME280;36256;42.154;23.002;2022-11-03T13:38:58;97383.50;;;23.45;37.30
36630;BME280;36256;42.154;23.002;2022-11-03T13:41:24;97376.34;;;23.32;37.21
36630;BME280;36256;42.154;23.002;2022-11-03T13:43:51;97381.50;;;23.39;37.21
36630;BME280;36256;42.154;23.002;2022-11-03T13:46:18;97385.28;;;23.48;39.83
36630;BME280;36256;42.154;23.002;2022-11-03T13:48:44;97388.16;;;23.48;37.52
36630;BME280;36256;42.154;23.002;2022-11-03T13:51:31;97376.53;;;23.40;36.90
36630;BME280;36256;42.154;23.002;2022-11-03T13:53:57;97376.66;;;23.29;36.94
36630;BME280;36256;42.154;23.002;2022-11-03T13:56:44;97370.38;;;23.30;37.16
36630;BME280;36256;42.154;23.002;2022-11-03T13:59:31;97373.34;;;23.19;37.01
36630;BME280;36256;42.154;23.002;2022-11-03T14:01:57;97367.25;;;23.04;37.34
36630;BME280;36256;42.154;23.002;2022-11-03T14:04:45;97371.75;;;23.00;37.49
36630;BME280;36256;42.154;23.002;2022-11-03T14:07:11;97363.53;;;22.91;37.71
36630;BME280;36256;42.154;23.002;2022-11-03T14:09:38;97370.91;;;22.81;38.26
36630;BME280;36256;42.154;23.002;2022-11-03T14:12:05;97373.81;;;22.75;39.25
36630;BME280;36256;42.154;23.002;2022-11-03T14:14:50;97376.25;;;22.66;39.36
36630;BME280;36256;42.154;23.002;2022-11-03T14:17:16;97365.16;;;22.51;39.28
36630;BME280;36256;42.154;23.002;2022-11-03T14:19:43;97372.25;;;22.44;38.95